createdAt,value
2019-02-12T00:01:41.030Z,7.33
2019-02-12T00:04:07.785Z,5.00
2019-02-12T00:06:34.315Z,7.80
2019-02-12T00:09:00.834Z,6.60
2019-02-12T00:11:27.398Z,5.80
2019-02-12T00:13:53.922Z,9.87
2019-02-12T00:16:20.468Z,5.53
2019-02-12T00:18:46.897Z,7.87
2019-02-12T00:21:13.450Z,4.40
2019-02-12T00:23:40.069Z,4.70
2019-02-12T00:26:06.620Z,8.67
2019-02-12T00:28:33.140Z,7.97
2019-02-12T00:30:59.736Z,4.63
2019-02-12T00:33:26.361Z,3.87
2019-02-12T00:35:53.048Z,8.03
2019-02-12T00:38:19.568Z,5.70
2019-02-12T00:40:46.136Z,6.90
2019-02-12T00:43:12.646Z,6.03
2019-02-12T00:45:39.292Z,5.77
2019-02-12T00:48:05.817Z,6.97
2019-02-12T00:50:32.373Z,7.90
2019-02-12T00:52:58.899Z,7.70
2019-02-12T00:55:25.457Z,10.47
2019-02-12T00:57:52.080Z,9.43
2019-02-12T01:00:18.727Z,7.47
2019-02-12T01:02:46.359Z,4.80
2019-02-12T01:05:13.035Z,9.30
2019-02-12T01:07:39.760Z,7.47
2019-02-12T01:10:08.909Z,5.63
2019-02-12T01:12:35.649Z,5.83
2019-02-12T01:15:05.317Z,6.37
2019-02-12T01:17:33.531Z,8.00
2019-02-12T01:20:00.223Z,6.73
2019-02-12T01:22:26.912Z,6.50
2019-02-12T01:24:53.643Z,5.77
2019-02-12T01:27:20.215Z,4.73
2019-02-12T01:29:46.844Z,4.93
2019-02-12T01:32:14.323Z,3.73
2019-02-12T01:34:41.742Z,5.30
2019-02-12T01:37:08.500Z,5.60
2019-02-12T01:39:35.021Z,5.40
2019-02-12T01:42:01.663Z,3.40
2019-02-12T01:44:28.294Z,2.63
2019-02-12T01:46:55.047Z,3.10
2019-02-12T01:49:21.665Z,2.47
2019-02-12T01:51:48.424Z,5.33
2019-02-12T01:54:14.945Z,9.63
2019-02-12T01:56:43.193Z,4.37
2019-02-12T01:59:09.725Z,5.43
2019-02-12T02:01:36.270Z,7.13
2019-02-12T02:04:02.934Z,4.80
2019-02-12T02:06:29.427Z,7.70
2019-02-12T02:08:55.961Z,6.83
2019-02-12T02:11:22.569Z,6.90
2019-02-12T02:13:49.029Z,6.80
2019-02-12T02:16:15.577Z,5.60
2019-02-12T02:18:42.103Z,6.30
2019-02-12T02:21:09.250Z,7.60
2019-02-12T02:23:35.779Z,6.50
2019-02-12T02:26:02.337Z,5.23
2019-02-12T02:28:28.860Z,6.63
2019-02-12T02:30:55.436Z,7.03
2019-02-12T02:33:22.852Z,5.03
2019-02-12T02:35:49.682Z,5.10
2019-02-12T02:38:17.330Z,4.33
2019-02-12T02:40:43.962Z,5.00
2019-02-12T02:43:11.421Z,6.13
2019-02-12T02:45:39.648Z,6.27
2019-02-12T02:48:06.398Z,8.47
2019-02-12T02:50:33.021Z,5.50
2019-02-12T02:52:59.571Z,8.40
2019-02-12T02:55:26.286Z,5.73
2019-02-12T02:57:53.250Z,4.73
2019-02-12T03:00:20.235Z,6.03
2019-02-12T03:02:48.489Z,6.77
2019-02-12T03:05:15.209Z,6.90
2019-02-12T03:07:41.887Z,13.30
2019-02-12T03:10:09.413Z,4.80
2019-02-12T03:12:36.061Z,7.10
2019-02-12T03:15:03.886Z,5.83
2019-02-12T03:17:30.440Z,5.50
2019-02-12T03:19:57.869Z,6.30
2019-02-12T03:22:24.520Z,7.20
2019-02-12T03:24:52.041Z,9.97
2019-02-12T03:27:18.701Z,3.07
2019-02-12T03:29:45.322Z,6.10
2019-02-12T03:32:11.982Z,6.73
2019-02-12T03:34:39.041Z,4.07
2019-02-12T03:37:06.758Z,4.27
2019-02-12T03:39:33.316Z,5.20
2019-02-12T03:41:59.841Z,7.07
2019-02-12T03:44:26.401Z,4.77
2019-02-12T03:46:53.136Z,4.13
2019-02-12T03:49:19.684Z,4.90
2019-02-12T03:51:46.417Z,8.43
2019-02-12T03:54:13.079Z,7.17
2019-02-12T03:56:39.885Z,6.43
2019-02-12T03:59:06.451Z,8.03
2019-02-12T04:01:34.081Z,6.40
2019-02-12T04:04:00.733Z,4.07
2019-02-12T04:06:27.550Z,6.33
2019-02-12T04:08:54.220Z,4.57
2019-02-12T04:11:24.283Z,4.77
2019-02-12T04:13:50.399Z,5.37
2019-02-12T04:16:17.012Z,4.03
2019-02-12T04:18:43.668Z,4.57
2019-02-12T04:21:10.316Z,6.97
2019-02-12T04:23:36.936Z,8.07
2019-02-12T04:26:03.676Z,7.13
2019-02-12T04:28:32.328Z,4.03
2019-02-12T04:30:58.994Z,6.50
2019-02-12T04:33:25.954Z,4.63
2019-02-12T04:35:52.684Z,7.20
2019-02-12T04:38:19.361Z,5.80
2019-02-12T04:40:45.885Z,12.40
2019-02-12T04:43:12.455Z,4.00
2019-02-12T04:45:39.081Z,7.13
2019-02-12T04:48:05.711Z,8.20
2019-02-12T04:50:32.266Z,6.53
2019-02-12T04:52:58.904Z,6.50
2019-02-12T04:55:25.454Z,4.70
2019-02-12T04:57:53.747Z,7.27
2019-02-12T05:00:20.237Z,13.07
2019-02-12T05:02:46.803Z,7.17
2019-02-12T05:05:13.458Z,6.33
2019-02-12T05:07:40.085Z,7.13
2019-02-12T05:10:13.870Z,7.73
2019-02-12T05:12:40.526Z,10.63
2019-02-12T05:15:08.430Z,5.63
2019-02-12T05:17:35.513Z,5.47
2019-02-12T05:20:05.131Z,6.53
2019-02-12T05:22:42.784Z,6.13
2019-02-12T05:25:00.053Z,7.07
2019-02-12T05:27:26.956Z,7.43
2019-02-12T05:29:55.218Z,3.80
2019-02-12T05:32:23.428Z,4.20
2019-02-12T05:34:49.989Z,4.93
2019-02-12T05:37:16.496Z,3.37
2019-02-12T05:39:43.061Z,5.23
2019-02-12T05:42:09.684Z,4.90
2019-02-12T05:44:36.246Z,6.70
2019-02-12T05:47:02.859Z,8.77
2019-02-12T05:49:29.524Z,5.17
2019-02-12T05:51:56.145Z,4.73
2019-02-12T05:54:22.812Z,8.67
2019-02-12T05:56:49.544Z,13.37
2019-02-12T05:59:16.122Z,5.40
2019-02-12T06:01:42.606Z,9.60
2019-02-12T06:04:09.701Z,5.27
2019-02-12T06:06:36.274Z,5.20
2019-02-12T06:09:04.077Z,4.80
2019-02-12T06:11:30.792Z,11.93
2019-02-12T06:13:57.495Z,6.17
2019-02-12T06:16:24.089Z,8.53
2019-02-12T06:18:50.745Z,7.67
2019-02-12T06:21:17.360Z,7.33
2019-02-12T06:23:44.021Z,7.33
2019-02-12T06:26:10.652Z,6.43
2019-02-12T06:28:37.213Z,7.40
2019-02-12T06:31:03.956Z,5.77
2019-02-12T06:33:30.606Z,7.30
2019-02-12T06:35:57.233Z,3.33
2019-02-12T06:38:23.893Z,8.47
2019-02-12T06:40:50.508Z,4.50
2019-02-12T06:43:17.089Z,8.70
2019-02-12T06:45:43.719Z,5.87
2019-02-12T06:48:10.461Z,6.73
2019-02-12T06:50:37.105Z,6.87
2019-02-12T06:53:12.060Z,11.80
2019-02-12T06:55:32.389Z,5.63
2019-02-12T06:57:59.000Z,3.73
2019-02-12T07:00:25.649Z,4.17
2019-02-12T07:03:14.337Z,8.40
2019-02-12T07:05:44.763Z,5.80
2019-02-12T07:08:30.370Z,7.97
2019-02-12T07:11:03.413Z,6.80
2019-02-12T07:13:36.548Z,7.50
2019-02-12T07:16:06.977Z,7.70
2019-02-12T07:18:43.269Z,4.97
2019-02-12T07:21:22.318Z,7.13
2019-02-12T07:24:13.821Z,3.90
2019-02-12T07:26:50.465Z,5.90
2019-02-12T07:29:37.474Z,7.80
2019-02-12T07:32:13.907Z,18.17
2019-02-12T07:34:47.054Z,8.70
2019-02-12T07:37:44.662Z,8.17
2019-02-12T07:40:33.410Z,6.60
2019-02-12T07:43:19.119Z,4.53
2019-02-12T07:45:55.211Z,5.00
2019-02-12T07:48:25.673Z,10.13
2019-02-12T07:51:11.266Z,8.60
2019-02-12T07:54:15.040Z,7.20
2019-02-12T07:57:03.305Z,9.70
2019-02-12T07:59:42.791Z,5.90
2019-02-12T08:02:22.509Z,9.20
2019-02-12T08:05:02.257Z,5.43
2019-02-12T08:07:44.547Z,5.37
2019-02-12T08:10:20.801Z,9.10
2019-02-12T08:12:59.874Z,10.60
2019-02-12T08:15:55.781Z,9.30
2019-02-12T08:18:52.161Z,6.37
2019-02-12T08:21:25.534Z,6.33
2019-02-12T08:24:14.516Z,10.57
2019-02-12T08:27:03.047Z,3.93
2019-02-12T08:29:51.550Z,5.27
2019-02-12T08:32:41.592Z,8.90
2019-02-12T08:35:21.279Z,9.43
2019-02-12T08:38:06.920Z,6.93
2019-02-12T08:40:37.350Z,3.63
2019-02-12T08:43:13.335Z,7.03
2019-02-12T08:46:16.144Z,9.30
2019-02-12T08:48:49.196Z,6.33
2019-02-12T08:51:47.869Z,5.80
2019-02-12T08:54:18.329Z,6.47
2019-02-12T08:57:21.748Z,6.00
2019-02-12T09:00:10.166Z,7.70
2019-02-12T09:02:49.783Z,5.37
2019-02-12T09:05:25.878Z,7.50
2019-02-12T09:07:56.182Z,4.70
2019-02-12T09:10:41.946Z,7.93
2019-02-12T09:13:15.186Z,10.87
2019-02-12T09:15:51.271Z,7.20
2019-02-12T09:18:47.784Z,9.33
2019-02-12T09:21:39.645Z,10.07
2019-02-12T09:24:25.200Z,11.43
2019-02-12T09:27:14.282Z,12.07
2019-02-12T09:29:56.967Z,8.23
2019-02-12T09:32:30.130Z,5.70
2019-02-12T09:35:00.499Z,7.40
2019-02-12T09:37:34.062Z,6.20
2019-02-12T09:40:19.253Z,7.40
2019-02-12T09:42:48.559Z,5.00
2019-02-12T09:45:28.169Z,8.07
2019-02-12T09:48:13.509Z,7.60
2019-02-12T09:51:04.939Z,9.80
2019-02-12T09:53:35.292Z,5.87
2019-02-12T09:56:11.988Z,7.30
2019-02-12T09:59:08.517Z,6.87
2019-02-12T10:01:47.810Z,5.80
2019-02-12T10:04:18.301Z,4.87
2019-02-12T10:06:48.653Z,9.77
2019-02-12T10:09:55.651Z,7.90
2019-02-12T10:12:36.283Z,8.60
2019-02-12T10:15:25.286Z,9.83
2019-02-12T10:18:21.599Z,7.83
2019-02-12T10:21:10.189Z,5.90
2019-02-12T10:23:54.254Z,9.73
2019-02-12T10:26:29.959Z,5.47
2019-02-12T10:29:18.692Z,2.67
2019-02-12T10:31:45.008Z,7.00
2019-02-12T10:34:11.803Z,4.97
2019-02-12T10:36:38.486Z,6.47
2019-02-12T10:39:07.029Z,4.93
2019-02-12T10:41:33.554Z,6.83
2019-02-12T10:44:00.214Z,6.47
2019-02-12T10:46:26.732Z,6.53
2019-02-12T10:48:54.985Z,4.30
2019-02-12T10:51:21.711Z,5.43
2019-02-12T10:53:48.270Z,6.93
2019-02-12T10:56:14.789Z,4.40
2019-02-12T10:58:41.414Z,6.23
2019-02-12T11:01:08.442Z,4.57
2019-02-12T11:03:34.962Z,6.97
2019-02-12T11:06:01.618Z,7.87
2019-02-12T11:08:28.135Z,5.23
2019-02-12T11:10:54.807Z,7.43
2019-02-12T11:13:21.422Z,4.57
2019-02-12T11:15:48.068Z,3.53
2019-02-12T11:18:14.602Z,2.90
2019-02-12T11:20:41.144Z,7.50
2019-02-12T11:23:07.873Z,7.00
2019-02-12T11:25:34.528Z,4.53
2019-02-12T11:28:01.150Z,8.53
2019-02-12T11:30:29.433Z,8.47
2019-02-12T11:32:55.926Z,6.80
2019-02-12T11:35:22.579Z,8.20
2019-02-12T11:37:49.134Z,8.17
2019-02-12T11:40:15.707Z,8.00
2019-02-12T11:42:42.233Z,7.37
2019-02-12T11:45:11.796Z,5.03
2019-02-12T11:47:38.311Z,6.57
2019-02-12T11:50:09.260Z,3.43
2019-02-12T11:52:36.677Z,9.43
2019-02-12T11:55:06.435Z,5.07
2019-02-12T11:57:33.049Z,3.90
2019-02-12T11:59:59.822Z,10.40
2019-02-12T12:02:28.317Z,5.80
2019-02-12T12:04:54.884Z,7.57
2019-02-12T12:07:21.505Z,4.10
2019-02-12T12:09:48.161Z,3.60
2019-02-12T12:12:15.210Z,5.47
2019-02-12T12:14:41.767Z,6.63
2019-02-12T12:17:08.387Z,6.37
2019-02-12T12:19:35.040Z,4.27
2019-02-12T12:22:01.671Z,4.07
2019-02-12T12:24:28.175Z,5.00
2019-02-12T12:26:54.723Z,8.57
2019-02-12T12:29:21.259Z,4.00
2019-02-12T12:31:47.813Z,6.00
2019-02-12T12:34:14.431Z,8.63
2019-02-12T12:36:40.873Z,4.70
2019-02-12T12:39:07.605Z,4.57
2019-02-12T12:41:34.221Z,6.40
2019-02-12T12:44:00.755Z,6.53
2019-02-12T12:46:27.295Z,3.27
2019-02-12T12:48:53.830Z,5.57
2019-02-12T12:51:20.430Z,5.73
2019-02-12T12:53:46.894Z,5.13
2019-02-12T12:56:13.436Z,6.10
2019-02-12T12:58:39.965Z,4.23
2019-02-12T13:01:06.505Z,6.70
2019-02-12T13:03:33.038Z,3.13
2019-02-12T13:05:59.573Z,2.80
2019-02-12T13:08:26.207Z,5.10
2019-02-12T13:10:52.792Z,7.87
2019-02-12T13:13:19.304Z,4.40
2019-02-12T13:15:45.965Z,5.60
2019-02-12T13:18:12.587Z,10.43
2019-02-12T13:20:39.240Z,5.40
2019-02-12T13:23:05.844Z,4.80
2019-02-12T13:25:32.465Z,7.20
2019-02-12T13:27:59.035Z,3.87
2019-02-12T13:30:25.588Z,7.30
2019-02-12T13:32:52.103Z,4.83
2019-02-12T13:35:18.863Z,4.67
2019-02-12T13:37:45.505Z,5.70
2019-02-12T13:40:12.432Z,4.03
2019-02-12T13:42:39.684Z,4.77
2019-02-12T13:45:09.002Z,5.53
2019-02-12T13:47:35.654Z,6.37
2019-02-12T13:50:04.889Z,6.90
2019-02-12T13:52:31.640Z,4.73
2019-02-12T13:54:58.373Z,5.43
2019-02-12T13:57:25.013Z,4.43
2019-02-12T13:59:51.741Z,4.33
2019-02-12T14:02:18.413Z,7.40
2019-02-12T14:04:44.938Z,7.07
2019-02-12T14:07:11.555Z,6.13
2019-02-12T14:09:38.057Z,5.67
2019-02-12T14:12:04.720Z,6.33
2019-02-12T14:14:31.240Z,3.20
2019-02-12T14:16:57.815Z,5.53
2019-02-12T14:19:24.337Z,6.60
2019-02-12T14:21:50.936Z,5.33
2019-02-12T14:24:17.459Z,4.87
2019-02-12T14:26:44.121Z,5.80
2019-02-12T14:29:10.642Z,6.10
2019-02-12T14:31:37.295Z,7.20
2019-02-12T14:34:03.830Z,7.57
2019-02-12T14:36:30.575Z,6.73
2019-02-12T14:38:58.209Z,6.23
2019-02-12T14:41:24.980Z,4.60
2019-02-12T14:43:51.594Z,4.80
2019-02-12T14:46:18.755Z,3.27
2019-02-12T14:48:46.988Z,5.80
2019-02-12T14:51:13.742Z,7.00
2019-02-12T14:53:40.436Z,3.40
2019-02-12T14:56:11.386Z,4.70
2019-02-12T14:58:37.131Z,5.40
2019-02-12T15:01:04.761Z,5.00
2019-02-12T15:03:31.349Z,4.90
2019-02-12T15:05:57.902Z,4.90
2019-02-12T15:08:24.432Z,6.33
2019-02-12T15:10:51.057Z,6.80
2019-02-12T15:13:17.718Z,7.77
2019-02-12T15:15:44.384Z,7.07
2019-02-12T15:18:10.953Z,4.60
2019-02-12T15:20:37.586Z,6.10
2019-02-12T15:23:04.157Z,5.80
2019-02-12T15:25:30.670Z,6.57
2019-02-12T15:27:57.349Z,4.20
2019-02-12T15:30:23.868Z,6.00
2019-02-12T15:32:50.452Z,6.37
2019-02-12T15:35:16.981Z,5.33
2019-02-12T15:37:43.660Z,4.97
2019-02-12T15:40:13.381Z,8.70
2019-02-12T15:42:39.955Z,6.60
2019-02-12T15:45:12.688Z,7.47
2019-02-12T15:47:39.354Z,5.93
2019-02-12T15:50:08.321Z,5.93
2019-02-12T15:52:34.957Z,6.13
2019-02-12T15:55:01.752Z,9.57
2019-02-12T15:57:28.388Z,3.37
2019-02-12T15:59:56.123Z,6.57
2019-02-12T16:02:22.697Z,8.37
2019-02-12T16:04:50.196Z,8.27
2019-02-12T16:07:16.796Z,4.60
2019-02-12T16:09:43.473Z,8.00
2019-02-12T16:12:10.124Z,7.43
2019-02-12T16:14:36.564Z,8.03
2019-02-12T16:17:03.129Z,6.73
2019-02-12T16:19:29.976Z,5.30
2019-02-12T16:21:58.019Z,8.63
2019-02-12T16:24:24.593Z,5.43
2019-02-12T16:26:51.166Z,7.70
2019-02-12T16:29:17.780Z,7.30
2019-02-12T16:31:44.349Z,4.50
2019-02-12T16:34:10.917Z,5.10
2019-02-12T16:36:37.452Z,6.67
2019-02-12T16:39:04.692Z,5.97
2019-02-12T16:41:31.212Z,7.60
2019-02-12T16:43:57.781Z,7.73
2019-02-12T16:46:24.394Z,7.30
2019-02-12T16:48:50.963Z,3.33
2019-02-12T16:51:18.465Z,6.80
2019-02-12T16:53:45.126Z,6.47
2019-02-12T16:56:12.647Z,6.27
2019-02-12T16:58:39.323Z,6.20
2019-02-12T17:01:06.053Z,5.13
2019-02-12T17:03:32.629Z,6.97
2019-02-12T17:05:59.862Z,5.33
2019-02-12T17:08:26.717Z,6.00
2019-02-12T17:10:53.475Z,5.20
2019-02-12T17:13:20.142Z,7.20
2019-02-12T17:15:47.448Z,6.03
2019-02-12T17:18:14.104Z,3.20
2019-02-12T17:20:40.843Z,6.33
2019-02-12T17:23:07.516Z,5.43
2019-02-12T17:25:34.539Z,9.83
2019-02-12T17:28:01.248Z,6.57
2019-02-12T17:30:27.873Z,5.90
2019-02-12T17:32:55.097Z,8.27
2019-02-12T17:35:21.866Z,5.80
2019-02-12T17:37:48.504Z,5.30
2019-02-12T17:40:16.778Z,7.20
2019-02-12T17:42:43.937Z,5.07
2019-02-12T17:45:13.211Z,5.40
2019-02-12T17:47:39.828Z,6.33
2019-02-12T17:50:10.497Z,6.90
2019-02-12T17:52:38.714Z,5.23
2019-02-12T17:55:06.736Z,7.83
2019-02-12T17:57:33.530Z,5.20
2019-02-12T18:00:00.493Z,7.10
2019-02-12T18:02:28.702Z,7.13
2019-02-12T18:04:55.329Z,6.10
2019-02-12T18:07:23.578Z,9.40
2019-02-12T18:09:50.376Z,8.17
2019-02-12T18:12:16.949Z,7.00
2019-02-12T18:14:43.569Z,3.33
2019-02-12T18:17:10.336Z,8.37
2019-02-12T18:19:37.008Z,9.67
2019-02-12T18:22:03.728Z,8.93
2019-02-12T18:24:30.459Z,6.00
2019-02-12T18:26:57.120Z,6.13
2019-02-12T18:29:23.688Z,6.00
2019-02-12T18:31:50.315Z,6.93
2019-02-12T18:34:16.794Z,4.00
2019-02-12T18:36:43.326Z,5.40
2019-02-12T18:39:09.886Z,5.20
2019-02-12T18:41:36.409Z,5.13
2019-02-12T18:44:02.964Z,8.73
2019-02-12T18:46:29.465Z,5.80
2019-02-12T18:48:56.141Z,7.93
2019-02-12T18:51:22.694Z,5.90
2019-02-12T18:53:49.890Z,6.43
2019-02-12T18:56:16.559Z,6.20
2019-02-12T18:58:43.081Z,7.90
2019-02-12T19:01:09.649Z,8.03
2019-02-12T19:03:36.278Z,7.77
2019-02-12T19:06:03.646Z,5.10
2019-02-12T19:08:30.297Z,7.43
2019-02-12T19:10:56.851Z,8.20
2019-02-12T19:13:23.382Z,8.97
2019-02-12T19:15:50.249Z,5.50
2019-02-12T19:18:20.073Z,10.03
2019-02-12T19:20:47.467Z,7.83
2019-02-12T19:23:13.984Z,3.57
2019-02-12T19:25:40.584Z,4.57
2019-02-12T19:28:07.138Z,7.37
2019-02-12T19:30:33.757Z,8.00
2019-02-12T19:33:00.758Z,5.60
2019-02-12T19:35:27.499Z,9.53
2019-02-12T19:37:54.029Z,9.03
2019-02-12T19:40:20.562Z,8.10
2019-02-12T19:42:47.138Z,8.20
2019-02-12T19:45:17.782Z,7.50
2019-02-12T19:47:44.406Z,8.50
2019-02-12T19:50:11.145Z,7.57
2019-02-12T19:52:37.790Z,11.60
2019-02-12T19:55:07.873Z,7.40
2019-02-12T19:57:34.741Z,9.30
2019-02-12T20:00:03.162Z,7.73
2019-02-12T20:02:29.657Z,5.60
2019-02-12T20:04:56.234Z,7.50
2019-02-12T20:07:22.858Z,9.60
2019-02-12T20:09:49.647Z,10.50
2019-02-12T20:12:16.176Z,9.73
2019-02-12T20:14:42.724Z,5.70
2019-02-12T20:17:09.297Z,13.87
2019-02-12T20:19:35.981Z,7.60
2019-02-12T20:22:02.637Z,7.73
2019-02-12T20:24:30.819Z,11.13
2019-02-12T20:26:57.560Z,9.13
2019-02-12T20:29:24.184Z,7.37
2019-02-12T20:31:50.849Z,8.80
2019-02-12T20:34:17.374Z,4.37
2019-02-12T20:36:44.733Z,8.73
2019-02-12T20:39:11.603Z,8.60
2019-02-12T20:41:38.256Z,9.63
2019-02-12T20:44:04.971Z,7.00
2019-02-12T20:46:31.633Z,11.30
2019-02-12T20:48:58.195Z,7.70
2019-02-12T20:51:24.771Z,8.43
2019-02-12T20:53:51.457Z,14.10
2019-02-12T20:56:18.064Z,9.40
2019-02-12T20:58:44.741Z,15.60
2019-02-12T21:01:11.394Z,8.80
2019-02-12T21:03:37.841Z,12.77
2019-02-12T21:06:04.362Z,15.43
2019-02-12T21:08:30.916Z,14.80
2019-02-12T21:10:57.526Z,10.03
2019-02-12T21:13:24.050Z,11.70
2019-02-12T21:15:50.620Z,12.90
2019-02-12T21:18:17.281Z,14.60
2019-02-12T21:20:43.910Z,15.93
2019-02-12T21:23:10.463Z,13.53
2019-02-12T21:25:36.989Z,15.67
2019-02-12T21:28:03.570Z,18.73
2019-02-12T21:30:31.490Z,17.03
2019-02-12T21:32:58.013Z,22.73
2019-02-12T21:35:24.588Z,16.53
2019-02-12T21:37:51.257Z,19.50
2019-02-12T21:40:23.256Z,16.50
2019-02-12T21:42:49.903Z,22.93
2019-02-12T21:45:16.571Z,22.90
2019-02-12T21:47:43.146Z,20.73
2019-02-12T21:50:10.777Z,22.77
2019-02-12T21:52:37.345Z,22.10
2019-02-12T21:55:07.706Z,26.07
2019-02-12T21:57:34.226Z,27.67
2019-02-12T22:00:00.789Z,19.90
2019-02-12T22:02:27.409Z,22.93
2019-02-12T22:04:54.493Z,22.27
2019-02-12T22:07:21.022Z,23.77
2019-02-12T22:09:47.749Z,27.10
2019-02-12T22:12:14.508Z,24.97
2019-02-12T22:14:41.091Z,26.67
2019-02-12T22:17:07.805Z,24.03
2019-02-12T22:19:34.436Z,28.53
2019-02-12T22:22:01.002Z,26.20
2019-02-12T22:24:27.528Z,27.17
2019-02-12T22:26:54.097Z,25.90
2019-02-12T22:29:20.792Z,27.93
2019-02-12T22:31:47.318Z,30.40
2019-02-12T22:34:13.890Z,31.53
2019-02-12T22:36:40.549Z,29.63
2019-02-12T22:39:07.074Z,31.93
2019-02-12T22:41:33.857Z,31.27
2019-02-12T22:44:00.388Z,28.93
2019-02-12T22:46:26.826Z,28.00
2019-02-12T22:48:53.494Z,33.90
2019-02-12T22:51:20.125Z,28.83
2019-02-12T22:53:46.685Z,27.33
2019-02-12T22:56:13.408Z,32.03
2019-02-12T22:58:40.128Z,28.20
2019-02-12T23:01:07.335Z,30.23
2019-02-12T23:03:33.999Z,29.53
2019-02-12T23:06:00.619Z,31.37
2019-02-12T23:08:28.911Z,34.53
2019-02-12T23:10:55.540Z,32.23
2019-02-12T23:13:22.228Z,31.10
2019-02-12T23:15:48.779Z,29.17
2019-02-12T23:18:15.432Z,32.67
2019-02-12T23:20:42.058Z,31.43
2019-02-12T23:23:08.717Z,33.33
2019-02-12T23:25:35.838Z,31.37
2019-02-12T23:28:02.485Z,34.50
2019-02-12T23:30:29.200Z,33.50
2019-02-12T23:32:55.949Z,31.90
2019-02-12T23:35:22.574Z,34.60
2019-02-12T23:37:49.138Z,34.13
2019-02-12T23:40:15.653Z,36.53
2019-02-12T23:42:42.296Z,34.37
2019-02-12T23:45:09.329Z,34.93
2019-02-12T23:47:35.984Z,36.33
2019-02-12T23:50:04.317Z,35.13
2019-02-12T23:52:30.872Z,34.87
2019-02-12T23:54:57.501Z,34.27
2019-02-12T23:57:24.147Z,37.30
2019-02-12T23:59:50.765Z,35.57
